»·PEaware :: WAT380 KSFO-KBUR

WAT380 :: KSFO-KBUR

FLIGHT INFORMATION

Flight Status: Arrived
Operator:
Walker Air Transport
More flights by this operator :: More flights under this callsign
Pilot: Spencer M. (27733)
Aircraft: BOEING 727-200
(B722)
More flights by this aircraft type
Origin: KSFO San Francisco Intl
United States
Destination: KBUR Bob Hope-Burbank
United States
More flights between these airports :: More routes between these airports
Route: OFFSH2 FLW FERN7
File this flight plan on PilotEdge
Remarks:
Altitude:
(Current/Filed)
31,000ft
Speed:
(Current/Filed)
510kts
Departed: 27-Sep-22 08:12 PM
Arrived: 27-Sep-22 09:09 PM
Distance/Time
Traveled:
283nm/0:57
Distance/Time
To Go:
Arrived

Flight Plot

Page will automatically refresh every two minutes.

Flight plan parsing failed; only flown route is shown


Map Options




Map Legend


Flown Route
Filed Route
Departure Airport
Arrival Airport
Navaid (VOR, NDB)
Fix

Horizontal Profiles

Position Reports

Time Latitude Longitude Heading Altitude Ground
Speed
27-Sep-22 19:50 37.613395 -122.383732 213 19ft 0kts
27-Sep-22 19:51 37.613395 -122.383732 213 19ft 0kts
27-Sep-22 19:52 37.613395 -122.383732 213 19ft 0kts
27-Sep-22 19:53 37.613395 -122.383732 213 19ft 0kts
27-Sep-22 19:54 37.613395 -122.383732 213 19ft 0kts
27-Sep-22 19:55 37.613395 -122.383732 213 19ft 0kts
27-Sep-22 19:56 37.613395 -122.383732 213 19ft 0kts
27-Sep-22 19:57 37.613395 -122.383732 213 19ft 0kts
27-Sep-22 19:58 37.613395 -122.383732 213 19ft 0kts
27-Sep-22 19:59 37.613395 -122.383732 213 19ft 0kts
27-Sep-22 20:00 37.613395 -122.383732 213 19ft 0kts
27-Sep-22 20:01 37.613575 -122.383582 213 19ft 0kts
27-Sep-22 20:02 37.614070 -122.383681 123 19ft 1kts
27-Sep-22 20:03 37.613709 -122.382822 117 19ft 0kts
27-Sep-22 20:04 37.613709 -122.382821 117 19ft 0kts
27-Sep-22 20:05 37.613709 -122.382821 117 19ft 0kts
27-Sep-22 20:07 37.613709 -122.382821 117 19ft 0kts
27-Sep-22 20:08 37.612110 -122.382648 207 20ft 17kts
27-Sep-22 20:09 37.608997 -122.383582 116 21ft 1kts
27-Sep-22 20:10 37.608978 -122.383530 115 21ft 0kts
27-Sep-22 20:11 37.608877 -122.382318 33 21ft 0kts
27-Sep-22 20:12 37.636516 -122.363401 11 1008ft 156kts
27-Sep-22 20:13 37.683344 -122.353726 348 3528ft 189kts
27-Sep-22 20:14 37.683633 -122.413569 220 5901ft 249kts
27-Sep-22 20:15 37.626654 -122.468787 216 9608ft 268kts
27-Sep-22 20:16 37.563931 -122.527146 216 12449ft 304kts
27-Sep-22 20:17 37.492359 -122.592456 216 15272ft 329kts
27-Sep-22 20:18 37.409728 -122.642038 186 17887ft 347kts
27-Sep-22 20:19 37.310996 -122.644641 183 20184ft 363kts
27-Sep-22 20:20 37.209725 -122.625999 168 22134ft 380kts
27-Sep-22 20:21 37.105183 -122.599190 172 23870ft 392kts
27-Sep-22 20:22 36.992707 -122.577635 174 24906ft 418kts
27-Sep-22 20:23 36.877330 -122.555749 173 26356ft 427kts
27-Sep-22 20:24 36.759120 -122.528821 171 27577ft 437kts
27-Sep-22 20:25 36.639113 -122.495705 169 28654ft 447kts
27-Sep-22 20:26 36.517484 -122.458186 168 29614ft 456kts
27-Sep-22 20:27 36.398536 -122.405031 138 30354ft 470kts
27-Sep-22 20:28 36.316457 -122.277163 128 31016ft 482kts
27-Sep-22 20:29 36.233900 -122.141541 128 31071ft 503kts
27-Sep-22 20:30 36.143752 -122.006330 130 31066ft 519kts
27-Sep-22 20:31 36.049034 -121.870066 134 31063ft 519kts
27-Sep-22 20:31 35.964165 -121.767264 137 31059ft 513kts
27-Sep-22 20:33 35.845451 -121.624158 134 31036ft 512kts
27-Sep-22 20:34 35.752240 -121.492192 128 31035ft 510kts
27-Sep-22 20:35 35.666864 -121.353684 126 31036ft 510kts
27-Sep-22 20:35 35.594681 -121.238950 129 31036ft 509kts
27-Sep-22 20:36 35.501606 -121.108110 132 31042ft 509kts
27-Sep-22 20:37 35.407991 -120.980511 130 31027ft 497kts
27-Sep-22 20:39 35.304671 -120.833378 130 31016ft 486kts
27-Sep-22 20:39 35.235899 -120.726181 110 30948ft 478kts
27-Sep-22 20:40 35.221624 -120.567165 101 30622ft 473kts
27-Sep-22 20:41 35.191023 -120.412501 102 29070ft 463kts
27-Sep-22 20:42 35.161378 -120.262642 102 26752ft 446kts
27-Sep-22 20:44 35.132622 -120.093551 101 24169ft 425kts
27-Sep-22 20:44 35.112715 -119.980428 104 24017ft 402kts
27-Sep-22 20:45 35.085246 -119.849075 115 23574ft 395kts
27-Sep-22 20:46 35.012183 -119.753761 138 21894ft 381kts
27-Sep-22 20:47 34.942882 -119.658686 133 20131ft 372kts
27-Sep-22 20:48 34.870542 -119.565172 134 19082ft 394kts
27-Sep-22 20:49 34.795719 -119.467883 133 18442ft 389kts
27-Sep-22 20:50 34.723453 -119.371334 132 17224ft 383kts
27-Sep-22 20:51 34.658943 -119.283947 132 15492ft 318kts
27-Sep-22 20:52 34.599839 -119.208948 134 12114ft 307kts
27-Sep-22 20:53 34.541815 -119.134139 131 10347ft 296kts
27-Sep-22 20:54 34.490540 -119.063563 129 9023ft 261kts
27-Sep-22 20:55 34.442932 -118.997051 131 7521ft 262kts
27-Sep-22 20:56 34.396313 -118.932718 131 6997ft 240kts
27-Sep-22 20:57 34.352747 -118.874517 142 5918ft 232kts
27-Sep-22 20:58 34.295914 -118.838905 155 5034ft 234kts
27-Sep-22 20:59 34.238416 -118.805191 154 4986ft 218kts
27-Sep-22 21:00 34.202828 -118.764273 93 4737ft 178kts
27-Sep-22 21:01 34.200881 -118.705278 89 4936ft 175kts
27-Sep-22 21:02 34.200669 -118.643484 88 4977ft 183kts
27-Sep-22 21:03 34.200538 -118.584879 89 4304ft 170kts
27-Sep-22 21:04 34.200005 -118.532237 90 3405ft 150kts
27-Sep-22 21:05 34.199314 -118.480062 90 2694ft 163kts
27-Sep-22 21:06 34.198686 -118.431129 90 1833ft 138kts
27-Sep-22 21:07 34.197968 -118.384410 88 1083ft 133kts
27-Sep-22 21:08 34.197685 -118.352529 91 789ft 23kts
27-Sep-22 21:09 34.196836 -118.351503 179 789ft 0kts
27-Sep-22 21:10 34.196836 -118.351503 179 789ft 0kts

Navigation Log

Ident Type
Flight plan parsing failed, navigation log unavailable